Portada
METAR-TAF:

METAR-TAF

Aeroports :

Vadsø, Noruega

latitud: 70-04N, longitud: 029-51E, altitud: 3 m

Observació

L'informe es va fer fa 3 hores i 41 minuts, a les 22:20 UTC
Vent 9 kt del Nord/Nord-Est
Temperatura 5°C
Humitat 100%
Pressió 1016 hPa
Visibilitat 10 km o més
Escasses núvols a una alçada de 2500 ft
Núvols disperses a una alçada de 5000 ft

METAR: ENVD 152220Z 03009KT 9999 FEW025 SCT050 05/05 Q1016

Hora: 04:01 (02:01 UTC)

Pronòstic

L'informe es va fer fa 5 hores i 19 minuts, a les 20:42 UTC
Pronòstic vàlid del 15 a les 20 UTC al 15 a les 23 UTC
Vent 9 kt del Nord-Est
Visibilitat 10 km o més
Escasses núvols a una alçada de 3000 ft
Núvols disperses a una alçada de 5500 ft

TAF: ENVD 152042Z 1520/1523 05009KT 9999 FEW030 SCT055

Observacions i pronòstics meteorològics de més de 4000 aeroports (METAR i TAF).

Les estacions disponibles són els punts grocs i vermells al mapa.

Posi el ratolí al punt desitjat per veure el nom de l'estació.

Feu clic per veure les observacions i els pronòstics meteorològics.

Per canviar el mapa: feu clic els botons verds amb una creu de color negre per apropar; al botó verd amb un guió per allunyar la imatge; o en les fletxes verdes per a mapes adjacents.


METAR-TAF: